createdAt,value
2023-04-14T00:02:35.454Z,4.92
2023-04-14T00:05:20.926Z,4.81
2023-04-14T00:08:06.042Z,3.66
2023-04-14T00:10:51.341Z,3.35
2023-04-14T00:13:36.190Z,3.68
2023-04-14T00:16:21.174Z,3.84
2023-04-14T00:19:06.408Z,3.93
2023-04-14T00:21:51.828Z,4.04
2023-04-14T00:24:37.123Z,4.15
2023-04-14T00:27:22.053Z,4.20
2023-04-14T00:30:08.113Z,4.23
2023-04-14T00:32:53.069Z,4.25
2023-04-14T00:35:38.527Z,4.27
2023-04-14T00:38:23.680Z,4.36
2023-04-14T00:41:08.864Z,4.22
2023-04-14T00:43:54.987Z,4.26
2023-04-14T00:46:40.975Z,4.29
2023-04-14T00:49:26.788Z,4.31
2023-04-14T00:52:11.929Z,4.30
2023-04-14T00:54:59.194Z,4.33
2023-04-14T00:57:45.539Z,4.48
2023-04-14T01:00:30.940Z,4.41
2023-04-14T01:03:16.494Z,4.36
2023-04-14T01:06:01.781Z,4.20
2023-04-14T01:08:48.560Z,4.11
2023-04-14T01:11:56.759Z,4.21
2023-04-14T01:14:53.584Z,4.13
2023-04-14T01:17:54.163Z,4.07
2023-04-14T01:20:46.896Z,4.17
2023-04-14T01:23:36.194Z,4.23
2023-04-14T01:26:30.118Z,4.07
2023-04-14T01:29:49.718Z,4.01
2023-04-14T01:32:39.941Z,3.97
2023-04-14T01:35:54.240Z,3.97
2023-04-14T01:38:42.551Z,3.90
2023-04-14T01:41:30.001Z,3.85
2023-04-14T01:44:19.243Z,3.79
2023-04-14T01:47:08.041Z,3.75
2023-04-14T01:49:55.371Z,3.77
2023-04-14T01:52:44.404Z,3.59
2023-04-14T01:55:31.822Z,3.52
2023-04-14T01:58:19.383Z,3.47
2023-04-14T02:01:05.692Z,3.67
2023-04-14T02:03:51.307Z,3.53
2023-04-14T02:06:38.850Z,3.43
2023-04-14T02:09:27.941Z,3.60
2023-04-14T02:12:13.356Z,3.37
2023-04-14T02:15:01.766Z,3.19
2023-04-14T02:17:49.281Z,3.06
2023-04-14T02:20:36.012Z,3.10
2023-04-14T02:23:21.614Z,3.01
2023-04-14T02:26:17.265Z,2.98
2023-04-14T02:29:09.749Z,2.93
2023-04-14T02:32:02.623Z,2.86
2023-04-14T02:35:10.491Z,2.88
2023-04-14T02:38:23.672Z,2.84
2023-04-14T02:41:13.394Z,2.80
2023-04-14T02:44:14.411Z,2.71
2023-04-14T02:47:10.533Z,2.64
2023-04-14T02:49:57.070Z,2.60
2023-04-14T02:52:44.713Z,2.83
2023-04-14T02:55:31.654Z,2.74
2023-04-14T02:58:17.482Z,2.86
2023-04-14T03:01:02.730Z,2.84
2023-04-14T03:03:49.544Z,2.65
2023-04-14T03:06:36.793Z,2.59
2023-04-14T03:09:22.621Z,2.53
2023-04-14T03:12:10.496Z,2.54
2023-04-14T03:14:55.901Z,2.65
2023-04-14T03:17:43.055Z,2.76
2023-04-14T03:20:29.010Z,2.73
2023-04-14T03:23:16.587Z,2.67
2023-04-14T03:26:03.645Z,2.63
2023-04-14T03:28:50.608Z,2.63
2023-04-14T03:31:37.826Z,2.71
2023-04-14T03:34:28.047Z,2.68
2023-04-14T03:37:16.740Z,2.69
2023-04-14T03:40:03.126Z,2.67
2023-04-14T03:42:49.627Z,2.68
2023-04-14T03:45:34.810Z,2.66
2023-04-14T03:48:21.909Z,2.68
2023-04-14T03:51:10.392Z,2.65
2023-04-14T03:53:57.943Z,2.67
2023-04-14T03:56:46.035Z,2.59
2023-04-14T03:59:33.296Z,2.54
2023-04-14T04:02:19.094Z,2.52
2023-04-14T04:05:04.936Z,2.47
2023-04-14T04:07:51.854Z,2.58
2023-04-14T04:10:38.321Z,2.62
2023-04-14T04:13:24.150Z,2.53
2023-04-14T04:16:11.478Z,2.41
2023-04-14T04:18:56.964Z,2.34
2023-04-14T04:21:45.063Z,2.28
2023-04-14T04:24:34.769Z,2.23
2023-04-14T04:27:27.747Z,2.40
2023-04-14T04:30:14.620Z,2.38
2023-04-14T04:33:03.044Z,2.34
2023-04-14T04:35:48.708Z,2.46
2023-04-14T04:38:33.830Z,2.30
2023-04-14T04:41:27.890Z,2.19
2023-04-14T04:44:12.748Z,2.13
2023-04-14T04:46:57.712Z,2.30
2023-04-14T04:49:42.591Z,2.22
2023-04-14T04:52:27.873Z,1.63
2023-04-14T04:55:13.325Z,1.90
2023-04-14T04:57:58.333Z,1.95
2023-04-14T05:00:43.761Z,2.03
2023-04-14T05:03:29.103Z,1.92
2023-04-14T05:06:14.449Z,1.81
2023-04-14T05:09:00.148Z,1.70
2023-04-14T05:11:45.573Z,1.85
2023-04-14T05:14:30.572Z,2.13
2023-04-14T05:17:15.940Z,2.07
2023-04-14T05:20:01.321Z,2.17
2023-04-14T05:22:46.699Z,2.23
2023-04-14T05:25:32.017Z,2.22
2023-04-14T05:28:17.070Z,2.15
2023-04-14T05:31:02.468Z,2.21
2023-04-14T05:33:47.550Z,2.34
2023-04-14T05:36:32.927Z,2.47
2023-04-14T05:39:18.194Z,2.54
2023-04-14T05:42:03.338Z,2.73
2023-04-14T05:44:48.744Z,2.86
2023-04-14T05:47:34.136Z,2.97
2023-04-14T05:50:19.498Z,3.09
2023-04-14T05:53:05.087Z,3.24
2023-04-14T05:55:53.692Z,3.50
2023-04-14T05:58:39.000Z,3.70
2023-04-14T06:01:24.435Z,3.78
2023-04-14T06:04:10.075Z,3.97
2023-04-14T06:06:55.864Z,4.03
2023-04-14T06:09:41.801Z,4.20
2023-04-14T06:12:27.804Z,4.29
2023-04-14T06:15:13.095Z,4.46
2023-04-14T06:17:58.727Z,4.46
2023-04-14T06:20:45.006Z,4.48
2023-04-14T06:23:30.401Z,4.62
2023-04-14T06:26:15.394Z,4.66
2023-04-14T06:29:01.209Z,4.79
2023-04-14T06:31:46.613Z,4.90
2023-04-14T06:34:31.978Z,5.21
2023-04-14T06:37:17.637Z,5.45
2023-04-14T06:40:02.565Z,5.45
2023-04-14T06:42:48.118Z,5.54
2023-04-14T06:45:33.456Z,5.91
2023-04-14T06:48:19.002Z,6.12
2023-04-14T06:51:04.438Z,6.15
2023-04-14T06:53:49.747Z,6.36
2023-04-14T06:56:34.738Z,6.73
2023-04-14T06:59:20.076Z,6.85
2023-04-14T07:02:05.946Z,7.06
2023-04-14T07:04:51.285Z,7.41
2023-04-14T07:07:39.729Z,7.70
2023-04-14T07:10:25.247Z,7.56
2023-04-14T07:13:10.688Z,7.90
2023-04-14T07:15:56.393Z,7.78
2023-04-14T07:18:41.580Z,8.26
2023-04-14T07:21:27.530Z,8.29
2023-04-14T07:24:15.237Z,8.73
2023-04-14T07:27:00.779Z,9.31
2023-04-14T07:29:45.585Z,10.03
2023-04-14T07:32:30.604Z,10.38
2023-04-14T07:35:16.479Z,10.70
2023-04-14T07:38:01.574Z,9.89
2023-04-14T07:40:46.893Z,9.26
2023-04-14T07:43:32.741Z,8.98
2023-04-14T07:46:18.387Z,9.17
2023-04-14T07:49:03.565Z,9.43
2023-04-14T07:51:49.464Z,9.79
2023-04-14T07:54:34.840Z,10.99
2023-04-14T07:57:20.256Z,11.57
2023-04-14T08:00:06.800Z,12.13
2023-04-14T08:02:52.006Z,12.40
2023-04-14T08:05:38.015Z,12.47
2023-04-14T08:08:24.596Z,12.54
2023-04-14T08:11:09.852Z,11.88
2023-04-14T08:13:55.165Z,11.61
2023-04-14T08:16:40.795Z,11.52
2023-04-14T08:19:25.897Z,11.00
2023-04-14T08:22:10.795Z,11.45
2023-04-14T08:24:56.167Z,12.00
2023-04-14T08:27:41.680Z,12.86
2023-04-14T08:30:27.272Z,12.97
2023-04-14T08:33:12.306Z,13.75
2023-04-14T08:36:00.465Z,14.22
2023-04-14T08:38:46.119Z,12.79
2023-04-14T08:41:34.102Z,12.69
2023-04-14T08:44:19.377Z,13.39
2023-04-14T08:47:07.082Z,14.15
2023-04-14T08:50:05.491Z,13.60
2023-04-14T08:52:55.902Z,13.05
2023-04-14T08:55:42.615Z,13.79
2023-04-14T08:58:28.763Z,14.37
2023-04-14T09:01:14.822Z,14.62
2023-04-14T09:04:01.316Z,14.48
2023-04-14T09:06:47.091Z,13.94
2023-04-14T09:09:32.575Z,14.55
2023-04-14T09:12:17.750Z,14.03
2023-04-14T09:15:03.986Z,13.94
2023-04-14T09:17:49.127Z,14.42
2023-04-14T09:20:40.984Z,14.12
2023-04-14T09:23:27.318Z,14.30
2023-04-14T09:26:12.159Z,14.10
2023-04-14T09:28:56.965Z,14.95
2023-04-14T09:31:44.234Z,14.71
2023-04-14T09:34:29.740Z,14.98
2023-04-14T09:37:14.910Z,15.02
2023-04-14T09:40:00.274Z,14.79
2023-04-14T09:42:45.282Z,14.94
2023-04-14T09:45:44.232Z,13.85
2023-04-14T09:48:29.845Z,13.49
2023-04-14T09:51:14.957Z,13.74
2023-04-14T09:54:04.154Z,13.82
2023-04-14T09:56:50.010Z,13.57
2023-04-14T09:59:37.222Z,13.34
2023-04-14T10:02:22.809Z,13.15
2023-04-14T10:05:08.442Z,12.97
2023-04-14T10:07:53.550Z,13.21
2023-04-14T10:10:38.649Z,13.45
2023-04-14T10:13:23.996Z,13.43
2023-04-14T10:16:09.490Z,13.01
2023-04-14T10:18:55.781Z,13.99
2023-04-14T10:21:40.848Z,14.51
2023-04-14T10:24:26.377Z,14.42
2023-04-14T10:27:11.927Z,14.63
2023-04-14T10:29:58.375Z,14.79
2023-04-14T10:32:45.183Z,15.20
2023-04-14T10:35:39.744Z,15.11
2023-04-14T10:38:45.681Z,13.52
2023-04-14T10:41:42.924Z,13.44
2023-04-14T10:44:29.929Z,13.38
2023-04-14T10:47:23.367Z,14.38
2023-04-14T10:50:11.964Z,14.86
2023-04-14T10:52:57.040Z,14.37
2023-04-14T10:55:51.741Z,14.13
2023-04-14T10:58:38.166Z,14.63
2023-04-14T11:01:29.104Z,14.58
2023-04-14T11:04:18.119Z,13.33
2023-04-14T11:07:09.207Z,13.25
2023-04-14T11:10:18.633Z,13.36
2023-04-14T11:13:11.099Z,13.96
2023-04-14T11:16:07.202Z,13.99
2023-04-14T11:18:54.200Z,14.26
2023-04-14T11:21:48.782Z,14.38
2023-04-14T11:24:34.175Z,14.73
2023-04-14T11:27:19.341Z,14.24
2023-04-14T11:30:06.301Z,14.74
2023-04-14T11:32:53.785Z,15.85
2023-04-14T11:35:41.966Z,16.57
2023-04-14T11:38:27.607Z,16.94
2023-04-14T11:41:15.579Z,16.88
2023-04-14T11:44:00.953Z,16.72
2023-04-14T11:46:46.680Z,17.40
2023-04-14T11:49:36.068Z,17.51
2023-04-14T11:52:21.222Z,17.62
2023-04-14T11:55:07.174Z,17.39
2023-04-14T11:57:52.784Z,16.39
2023-04-14T12:00:38.067Z,14.97
2023-04-14T12:03:28.203Z,14.38
2023-04-14T12:06:13.794Z,15.11
2023-04-14T12:08:59.477Z,15.18
2023-04-14T12:11:54.462Z,15.04
2023-04-14T12:14:41.041Z,14.73
2023-04-14T12:17:26.686Z,14.48
2023-04-14T12:20:15.066Z,14.41
2023-04-14T12:23:04.404Z,14.50
2023-04-14T12:25:50.413Z,15.83
2023-04-14T12:28:35.888Z,17.57
2023-04-14T12:31:27.277Z,18.83
2023-04-14T12:34:12.823Z,18.61
2023-04-14T12:36:57.742Z,18.48
2023-04-14T12:39:54.216Z,18.55
2023-04-14T12:42:47.954Z,18.96
2023-04-14T12:45:59.863Z,20.07
2023-04-14T12:48:46.250Z,20.50
2023-04-14T12:51:38.850Z,19.80
2023-04-14T12:54:23.998Z,18.90
2023-04-14T12:57:09.282Z,18.88
2023-04-14T12:59:54.663Z,17.66
2023-04-14T13:02:40.139Z,18.03
2023-04-14T13:05:25.377Z,16.82
2023-04-14T13:08:10.345Z,16.44
2023-04-14T13:10:55.598Z,16.19
2023-04-14T13:13:41.300Z,16.12
2023-04-14T13:16:27.378Z,16.45
2023-04-14T13:19:12.853Z,16.00
2023-04-14T13:21:58.318Z,15.37
2023-04-14T13:24:43.482Z,15.72
2023-04-14T13:27:28.846Z,15.48
2023-04-14T13:30:13.678Z,15.88
2023-04-14T13:32:59.152Z,16.20
2023-04-14T13:35:44.616Z,15.63
2023-04-14T13:38:30.319Z,15.55
2023-04-14T13:41:15.909Z,15.52
2023-04-14T13:44:00.713Z,15.47
2023-04-14T13:46:46.343Z,15.82
2023-04-14T13:49:31.616Z,16.09
2023-04-14T13:52:16.985Z,16.46
2023-04-14T13:55:02.327Z,16.53
2023-04-14T13:57:47.123Z,16.25
2023-04-14T14:00:32.074Z,16.58
2023-04-14T14:03:17.564Z,17.23
2023-04-14T14:06:02.964Z,16.93
2023-04-14T14:09:05.275Z,16.70
2023-04-14T14:11:51.404Z,16.22
2023-04-14T14:14:36.334Z,16.39
2023-04-14T14:17:21.693Z,16.14
2023-04-14T14:20:10.942Z,17.14
2023-04-14T14:22:56.111Z,17.29
2023-04-14T14:25:41.778Z,17.56
2023-04-14T14:28:27.016Z,16.76
2023-04-14T14:31:14.148Z,16.19
2023-04-14T14:33:59.353Z,16.10
2023-04-14T14:36:44.554Z,16.36
2023-04-14T14:39:29.880Z,16.36
2023-04-14T14:42:15.248Z,16.07
2023-04-14T14:45:01.308Z,16.27
2023-04-14T14:47:46.445Z,16.07
2023-04-14T14:50:31.572Z,15.86
2023-04-14T14:53:19.777Z,16.04
2023-04-14T14:56:05.010Z,16.36
2023-04-14T14:58:50.471Z,16.31
2023-04-14T15:01:35.582Z,16.98
2023-04-14T15:04:20.863Z,17.41
2023-04-14T15:07:06.080Z,17.48
2023-04-14T15:09:51.065Z,17.21
2023-04-14T15:12:36.385Z,17.40
2023-04-14T15:15:21.595Z,16.52
2023-04-14T15:18:07.244Z,16.06
2023-04-14T15:20:53.672Z,17.08
2023-04-14T15:23:38.609Z,16.73
2023-04-14T15:26:24.038Z,16.76
2023-04-14T15:29:09.009Z,16.59
2023-04-14T15:31:54.324Z,15.88
2023-04-14T15:34:39.740Z,16.68
2023-04-14T15:37:24.585Z,16.69
2023-04-14T15:40:10.741Z,16.39
2023-04-14T15:42:55.997Z,16.27
2023-04-14T15:45:41.915Z,16.35
2023-04-14T15:48:27.190Z,15.84
2023-04-14T15:51:12.663Z,15.73
2023-04-14T15:53:57.871Z,15.86
2023-04-14T15:56:43.146Z,15.72
2023-04-14T15:59:29.367Z,16.21
2023-04-14T16:02:14.230Z,17.27
2023-04-14T16:04:59.668Z,17.53
2023-04-14T16:07:45.175Z,17.38
2023-04-14T16:10:30.421Z,16.05
2023-04-14T16:13:15.721Z,16.44
2023-04-14T16:16:01.006Z,16.52
2023-04-14T16:18:47.372Z,16.88
2023-04-14T16:21:32.310Z,16.86
2023-04-14T16:24:17.103Z,16.82
2023-04-14T16:27:02.416Z,16.84
2023-04-14T16:29:47.933Z,16.17
2023-04-14T16:32:32.829Z,16.08
2023-04-14T16:35:18.143Z,15.59
2023-04-14T16:38:03.305Z,15.73
2023-04-14T16:40:55.933Z,15.58
2023-04-14T16:43:40.894Z,15.64
2023-04-14T16:46:26.360Z,16.01
2023-04-14T16:49:13.490Z,16.21
2023-04-14T16:51:58.297Z,16.01
2023-04-14T16:54:43.775Z,15.82
2023-04-14T16:57:29.149Z,15.17
2023-04-14T17:00:14.839Z,15.04
2023-04-14T17:03:00.124Z,15.07
2023-04-14T17:05:45.318Z,14.90
2023-04-14T17:08:30.801Z,14.83
2023-04-14T17:11:15.782Z,15.07
2023-04-14T17:14:01.337Z,14.86
2023-04-14T17:16:46.359Z,14.86
2023-04-14T17:19:31.712Z,14.73
2023-04-14T17:22:17.144Z,14.51
2023-04-14T17:25:05.231Z,14.50
2023-04-14T17:27:50.254Z,14.19
2023-04-14T17:30:37.245Z,14.26
2023-04-14T17:33:22.560Z,14.17
2023-04-14T17:36:12.528Z,13.99
2023-04-14T17:38:58.024Z,13.97
2023-04-14T17:41:43.231Z,13.79
2023-04-14T17:44:33.521Z,13.83
2023-04-14T17:47:18.645Z,13.64
2023-04-14T17:50:04.786Z,13.53
2023-04-14T17:52:50.838Z,13.36
2023-04-14T17:55:36.728Z,13.36
2023-04-14T17:58:23.842Z,13.36
2023-04-14T18:01:09.030Z,13.28
2023-04-14T18:03:54.275Z,13.10
2023-04-14T18:06:39.562Z,13.00
2023-04-14T18:09:24.569Z,12.95
2023-04-14T18:12:09.962Z,12.82
2023-04-14T18:14:55.406Z,12.80
2023-04-14T18:17:44.313Z,12.70
2023-04-14T18:20:29.578Z,12.51
2023-04-14T18:23:15.305Z,12.44
2023-04-14T18:28:51.685Z,12.24
2023-04-14T18:31:37.129Z,12.18
2023-04-14T18:34:22.449Z,12.05
2023-04-14T18:37:08.018Z,12.05
2023-04-14T18:39:53.384Z,12.14
2023-04-14T18:42:38.887Z,12.18
2023-04-14T18:45:24.304Z,12.04
2023-04-14T18:48:09.564Z,11.85
2023-04-14T18:50:59.652Z,11.84
2023-04-14T18:53:45.203Z,11.80
2023-04-14T18:56:30.601Z,11.77
2023-04-14T18:59:16.201Z,11.79
2023-04-14T19:02:01.500Z,11.81
2023-04-14T19:04:46.941Z,11.66
2023-04-14T19:07:32.369Z,11.69
2023-04-14T19:10:18.236Z,11.58
2023-04-14T19:13:03.564Z,11.67
2023-04-14T19:15:49.007Z,11.65
2023-04-14T19:18:35.024Z,11.60
2023-04-14T19:21:20.604Z,11.51
2023-04-14T19:24:06.254Z,11.47
2023-04-14T19:26:51.227Z,11.52
2023-04-14T19:29:36.003Z,11.23
2023-04-14T19:32:21.399Z,11.31
2023-04-14T19:35:07.285Z,11.31
2023-04-14T19:37:52.685Z,11.36
2023-04-14T19:40:38.288Z,11.39
2023-04-14T19:43:23.409Z,11.26
2023-04-14T19:46:08.823Z,11.16
2023-04-14T19:48:54.050Z,11.05
2023-04-14T19:51:39.627Z,11.05
2023-04-14T19:54:24.797Z,11.02
2023-04-14T19:57:10.096Z,11.00
2023-04-14T19:59:55.474Z,10.98
2023-04-14T20:02:41.214Z,10.76
2023-04-14T20:05:26.804Z,10.82
2023-04-14T20:08:12.321Z,10.82
2023-04-14T20:10:57.593Z,10.87
2023-04-14T20:13:43.262Z,10.78
2023-04-14T20:16:28.536Z,10.59
2023-04-14T20:19:13.814Z,10.54
2023-04-14T20:21:59.230Z,10.41
2023-04-14T20:24:44.623Z,10.44
2023-04-14T20:27:29.798Z,10.47
2023-04-14T20:30:15.344Z,10.36
2023-04-14T20:33:02.062Z,10.37
2023-04-14T20:35:48.962Z,10.32
2023-04-14T20:38:34.351Z,10.23
2023-04-14T20:41:19.679Z,10.17
2023-04-14T20:44:04.539Z,10.17
2023-04-14T20:46:49.962Z,10.22
2023-04-14T20:49:35.052Z,10.16
2023-04-14T20:52:20.486Z,10.02
2023-04-14T20:55:06.487Z,10.03
2023-04-14T20:57:52.272Z,9.98
2023-04-14T21:00:37.366Z,10.02
2023-04-14T21:03:23.064Z,10.00
2023-04-14T21:06:08.373Z,9.96
2023-04-14T21:08:53.417Z,9.85
2023-04-14T21:11:38.175Z,9.91
2023-04-14T21:15:28.092Z,9.91
2023-04-14T21:17:28.308Z,9.85
2023-04-14T21:20:13.672Z,9.86
2023-04-14T21:22:58.991Z,9.79
2023-04-14T21:25:44.369Z,9.73
2023-04-14T21:28:29.765Z,9.65
2023-04-14T21:31:15.359Z,9.44
2023-04-14T21:34:00.706Z,9.25
2023-04-14T21:36:46.480Z,9.28
2023-04-14T21:39:31.344Z,9.22
2023-04-14T21:42:16.748Z,9.07
2023-04-14T21:45:01.759Z,8.94
2023-04-14T21:47:47.300Z,9.14
2023-04-14T21:50:33.288Z,8.92
2023-04-14T21:53:18.353Z,8.89
2023-04-14T21:56:10.188Z,8.86
2023-04-14T21:58:56.171Z,8.72
2023-04-14T22:01:41.752Z,8.71
2023-04-14T22:04:35.903Z,8.57
2023-04-14T22:07:21.169Z,8.59
2023-04-14T22:10:06.502Z,8.52
2023-04-14T22:12:51.710Z,8.51
2023-04-14T22:15:37.094Z,8.37
2023-04-14T22:18:23.724Z,8.35
2023-04-14T22:21:10.532Z,8.29
2023-04-14T22:23:56.855Z,8.23
2023-04-14T22:26:42.073Z,8.05
2023-04-14T22:29:27.413Z,8.14
2023-04-14T22:32:12.703Z,8.11
2023-04-14T22:34:58.025Z,7.97
2023-04-14T22:37:43.387Z,7.85
2023-04-14T22:40:28.737Z,7.94
2023-04-14T22:43:14.151Z,7.94
2023-04-14T22:45:59.607Z,7.82
2023-04-14T22:48:44.919Z,7.78
2023-04-14T22:51:30.427Z,7.86
2023-04-14T22:54:15.279Z,7.66
2023-04-14T22:57:00.653Z,7.62
2023-04-14T22:59:46.327Z,7.53
2023-04-14T23:02:31.407Z,7.62
2023-04-14T23:05:17.188Z,7.64
2023-04-14T23:08:02.466Z,7.42
2023-04-14T23:10:47.348Z,7.27
2023-04-14T23:13:32.811Z,7.30
2023-04-14T23:16:18.636Z,7.29
2023-04-14T23:19:04.361Z,7.27
2023-04-14T23:21:49.529Z,7.01
2023-04-14T23:24:34.981Z,6.91
2023-04-14T23:27:20.187Z,7.01
2023-04-14T23:30:06.379Z,7.11
2023-04-14T23:32:51.757Z,7.10
2023-04-14T23:35:37.098Z,7.05
2023-04-14T23:38:22.367Z,7.08
2023-04-14T23:41:07.778Z,7.01
2023-04-14T23:43:52.700Z,6.96
2023-04-14T23:46:38.146Z,6.96
2023-04-14T23:49:33.900Z,6.90
2023-04-14T23:52:19.948Z,6.84
2023-04-14T23:55:05.479Z,6.89
